Time;durP1;ratioP1;P1;durP2;ratioP2;P2;SDS_P1;SDS_P2;PMS_P1;PMS_P2;Temp;Humidity;BMP_temperature;BMP_pressure;BME280_temperature;BME280_humidity;BME280_pressure;Samples;Min_cycle;Max_cycle;Signal;HPM_P1;HPM_P2
2022/07/21 00:00:17;;;;;;;6.63;3.03;;;;;;;28.81;31.97;100770.53;5066803;28;20106;-68
2022/07/21 00:02:44;;;;;;;15.15;2.97;;;;;;;29.16;31.64;100765.97;5069178;28;20040;-68
2022/07/21 00:05:10;;;;;;;9.15;3.17;;;;;;;28.93;31.95;100769.81;5066180;28;20592;-68
2022/07/21 00:07:38;;;;;;;10.90;3.35;;;;;;;28.96;31.78;100761.31;5067842;28;20086;-68
2022/07/21 00:10:05;;;;;;;5.28;3.17;;;;;;;28.95;31.83;100767.72;5067545;28;20201;-68
2022/07/21 00:12:31;;;;;;;8.90;3.13;;;;;;;29.43;31.29;100774.06;5067645;28;20040;-68
2022/07/21 00:14:58;;;;;;;11.85;3.35;;;;;;;29.12;31.65;100768.25;5054811;28;20048;-68
2022/07/21 00:17:24;;;;;;;6.32;2.65;;;;;;;29.01;31.89;100774.19;5047614;28;20053;-68
2022/07/21 00:19:50;;;;;;;7.63;2.80;;;;;;;29.30;31.23;100765.91;5046118;28;20045;-68
2022/07/21 00:22:17;;;;;;;6.45;2.80;;;;;;;29.47;31.53;100755.56;5047365;28;20045;-68
2022/07/21 00:24:44;;;;;;;4.72;2.70;;;;;;;29.45;31.64;100744.97;5048031;28;20553;-68
2022/07/21 00:27:11;;;;;;;5.60;3.03;;;;;;;29.41;31.55;100756.41;5048658;28;20075;-68
2022/07/21 00:29:37;;;;;;;4.97;3.08;;;;;;;29.17;31.87;100768.50;5065575;28;20133;-68
2022/07/21 00:32:05;;;;;;;5.60;2.70;;;;;;;29.23;31.74;100756.88;5068630;28;20079;-68
2022/07/21 00:34:32;;;;;;;5.25;2.58;;;;;;;28.86;32.45;100773.50;5067720;28;20456;-68
2022/07/21 00:36:58;;;;;;;6.72;3.33;;;;;;;28.42;33.17;100787.19;5068192;28;20689;-68
2022/07/21 00:39:25;;;;;;;6.45;3.42;;;;;;;28.96;32.20;100796.41;5067608;28;20557;-68
2022/07/21 00:41:52;;;;;;;6.15;3.20;;;;;;;28.70;33.64;100822.34;5066705;28;20041;-68
2022/07/21 00:44:23;;;;;;;5.43;2.92;;;;;;;28.28;34.18;100826.69;5066980;28;20040;-68
2022/07/21 00:46:49;;;;;;;6.97;3.60;;;;;;;27.89;34.47;100828.94;5068317;28;20037;-68
2022/07/21 00:49:16;;;;;;;7.55;2.90;;;;;;;27.61;35.05;100809.91;5065838;28;20044;-68
2022/07/21 00:51:42;;;;;;;8.05;3.20;;;;;;;27.58;35.19;100837.22;5066183;28;20106;-68
2022/07/21 00:54:09;;;;;;;14.07;3.65;;;;;;;27.58;35.54;100818.38;5067300;28;20044;-68
2022/07/21 00:56:36;;;;;;;9.38;4.72;;;;;;;27.47;36.14;100851.16;5066136;28;20573;-68
2022/07/21 00:59:04;;;;;;;17.75;8.25;;;;;;;26.97;37.66;100860.75;5066310;28;20048;-68
2022/07/21 01:01:30;;;;;;;15.50;9.52;;;;;;;26.64;38.91;100872.78;5067683;28;20060;-68
2022/07/21 01:03:58;;;;;;;17.92;11.60;;;;;;;26.20;39.51;100877.94;5065763;28;20064;-68
2022/07/21 01:06:25;;;;;;;17.42;11.63;;;;;;;26.24;38.96;100881.94;5066856;28;20135;-68
2022/07/21 01:08:51;;;;;;;16.95;10.65;;;;;;;26.37;38.82;100878.69;5066269;28;20044;-68
2022/07/21 01:11:20;;;;;;;19.67;11.52;;;;;;;26.49;38.35;100883.47;5065928;28;20492;-68
2022/07/21 01:13:47;;;;;;;29.77;11.88;;;;;;;26.33;38.21;100891.66;5065366;28;20049;-68
2022/07/21 01:16:15;;;;;;;18.75;11.77;;;;;;;26.13;38.06;100895.75;5066212;28;20102;-68
2022/07/21 01:18:41;;;;;;;20.88;11.60;;;;;;;25.74;38.86;100887.69;5064623;28;20045;-68
2022/07/21 01:21:27;;;;;;;17.50;11.73;;;;;;;25.43;38.88;100890.28;5065802;28;20045;-68
2022/07/21 01:23:54;;;;;;;22.25;12.02;;;;;;;25.20;39.21;100887.47;5068495;28;20040;-68
2022/07/21 01:26:20;;;;;;;14.68;10.57;;;;;;;25.23;39.41;100898.88;5070183;28;20492;-68
2022/07/21 01:28:46;;;;;;;15.57;10.85;;;;;;;25.33;39.33;100916.47;5065933;28;20113;-68
2022/07/21 01:31:13;;;;;;;22.63;11.27;;;;;;;25.50;38.76;100914.56;5065679;28;20041;-68
2022/07/21 01:33:39;;;;;;;16.38;11.40;;;;;;;25.29;38.97;100914.28;5066951;28;20093;-68
2022/07/21 01:36:06;;;;;;;17.30;11.50;;;;;;;25.30;39.36;100914.13;5065872;28;20476;-68
2022/07/21 01:41:31;;;;;;;22.08;11.27;;;;;;;24.98;40.19;100906.94;5065979;28;20542;-68
2022/07/21 01:43:58;;;;;;;16.75;11.18;;;;;;;25.29;39.40;100900.88;5050375;28;20036;-68
2022/07/21 01:46:26;;;;;;;17.10;11.05;;;;;;;25.06;40.03;100908.78;5064419;28;20115;-68
2022/07/21 01:48:53;;;;;;;15.23;11.18;;;;;;;24.77;40.50;100903.88;5066461;28;20118;-68
2022/07/21 01:51:19;;;;;;;16.05;10.95;;;;;;;24.97;40.45;100905.28;5065090;28;20044;-68
2022/07/21 01:53:47;;;;;;;15.68;10.77;;;;;;;24.93;40.64;100903.09;5065826;28;20094;-68
2022/07/21 01:56:13;;;;;;;17.70;10.70;;;;;;;25.26;39.94;100899.38;5066797;28;20051;-68
2022/07/21 01:58:39;;;;;;;22.08;10.23;;;;;;;24.91;40.74;100902.41;5065609;28;20052;-68
2022/07/21 02:01:06;;;;;;;14.13;10.73;;;;;;;25.05;40.50;100894.56;5064806;28;20416;-68
2022/07/21 02:03:32;;;;;;;14.77;10.25;;;;;;;24.77;41.23;100895.84;5058686;28;20570;-68
2022/07/21 02:06:04;;;;;;;16.90;10.63;;;;;;;24.97;40.82;100910.66;5045217;28;20110;-68
2022/07/21 02:08:31;;;;;;;18.55;9.88;;;;;;;24.72;41.21;100915.09;5046032;28;20507;-68
2022/07/21 02:10:59;;;;;;;14.40;8.80;;;;;;;24.64;41.23;100930.38;5045263;28;20041;-68
2022/07/21 02:13:25;;;;;;;13.88;9.50;;;;;;;24.90;40.76;100939.16;5066697;28;20106;-68
2022/07/21 02:15:52;;;;;;;18.08;10.63;;;;;;;24.99;40.84;100945.34;5064588;28;20049;-68
2022/07/21 02:18:19;;;;;;;14.32;9.15;;;;;;;25.04;40.56;100953.72;5066550;28;20044;-68
2022/07/21 02:20:47;;;;;;;15.00;9.35;;;;;;;25.04;40.89;100951.88;5065242;28;20056;-68
2022/07/21 02:23:13;;;;;;;12.75;9.13;;;;;;;24.82;41.54;100941.78;5066124;28;20048;-68
2022/07/21 02:25:40;;;;;;;11.15;8.40;;;;;;;24.55;42.19;100939.38;5084737;28;20064;-68
2022/07/21 02:28:07;;;;;;;13.93;9.05;;;;;;;24.58;41.83;100947.94;5063199;28;20040;-68
2022/07/21 02:30:34;;;;;;;12.57;8.80;;;;;;;24.75;42.02;100953.34;5064597;28;20044;-68
2022/07/21 02:33:00;;;;;;;13.70;8.57;;;;;;;24.85;41.68;100956.72;5066026;28;20044;-68
2022/07/21 02:35:27;;;;;;;10.10;8.55;;;;;;;24.76;42.03;100955.84;5064551;28;20041;-68
2022/07/21 02:37:53;;;;;;;11.25;8.10;;;;;;;24.79;42.46;100963.56;5065001;28;20094;-68
2022/07/21 02:40:20;;;;;;;12.48;8.15;;;;;;;24.41;43.06;100973.03;5066748;28;20049;-68
2022/07/21 02:42:47;;;;;;;13.20;8.55;;;;;;;24.39;43.21;100979.56;5064833;28;20047;-68
2022/07/21 02:45:15;;;;;;;9.77;7.65;;;;;;;24.13;44.16;100975.09;5064945;28;20048;-68
2022/07/21 02:47:52;;;;;;;11.02;8.38;;;;;;;24.27;44.08;100980.84;5066604;28;20106;-68
2022/07/21 02:50:19;;;;;;;12.25;7.82;;;;;;;24.19;44.59;100973.63;5046292;28;20457;-68
2022/07/21 02:52:46;;;;;;;11.80;7.45;;;;;;;24.10;45.48;100972.69;5065956;28;20067;-68
2022/07/21 02:55:12;;;;;;;12.93;7.25;;;;;;;24.10;45.98;100963.81;5078213;28;20118;-68
2022/07/21 02:57:39;;;;;;;10.30;6.60;;;;;;;23.85;47.33;100962.88;5067555;28;20094;-68
2022/07/21 03:00:08;;;;;;;16.00;7.50;;;;;;;23.89;47.65;100958.03;5065011;28;20041;-68
2022/07/21 03:02:36;;;;;;;8.93;7.15;;;;;;;23.87;47.81;100952.03;5064756;28;20040;-68
2022/07/21 03:05:03;;;;;;;17.10;7.18;;;;;;;23.67;48.79;100970.13;5064673;28;20117;-68
2022/07/21 03:07:29;;;;;;;11.48;6.82;;;;;;;23.67;49.61;100944.22;5066517;28;20040;-68
2022/07/21 03:09:55;;;;;;;15.23;6.55;;;;;;;23.94;48.87;100939.66;5065262;28;20045;-68
2022/07/21 03:12:22;;;;;;;10.50;7.22;;;;;;;23.97;48.66;100940.19;5068517;28;20053;-68
2022/07/21 03:14:48;;;;;;;13.07;6.78;;;;;;;24.13;49.01;100932.22;5060089;28;20048;-68
2022/07/21 03:17:15;;;;;;;12.35;6.47;;;;;;;23.93;49.55;100957.56;5068391;28;20044;-68
2022/07/21 03:19:42;;;;;;;8.82;6.13;;;;;;;23.93;49.99;100962.94;5069666;28;20080;-68
2022/07/21 03:22:08;;;;;;;11.55;7.25;;;;;;;23.89;50.39;100971.44;5068664;28;20072;-68
2022/07/21 03:24:35;;;;;;;9.95;6.30;;;;;;;23.85;50.76;100960.19;5062162;28;20075;-68
2022/07/21 03:27:01;;;;;;;10.85;6.40;;;;;;;23.81;50.99;100977.56;5057459;28;20098;-68
2022/07/21 03:29:27;;;;;;;14.40;6.85;;;;;;;23.98;50.59;100975.84;5063341;28;20068;-68
2022/07/21 03:31:54;;;;;;;21.42;7.45;;;;;;;24.08;50.10;100971.19;5067304;28;20048;-68
2022/07/21 03:34:20;;;;;;;11.02;6.63;;;;;;;24.37;49.51;100973.50;5068175;28;20476;-68
2022/07/21 03:36:48;;;;;;;15.95;7.10;;;;;;;24.33;49.64;100974.84;5068073;28;20040;-68
2022/07/21 03:39:14;;;;;;;12.00;6.18;;;;;;;24.44;49.20;100979.91;5067369;28;20044;-68
2022/07/21 03:41:40;;;;;;;9.52;6.25;;;;;;;24.67;48.60;100997.06;5068620;28;20045;-68
2022/07/21 03:44:07;;;;;;;11.65;6.40;;;;;;;24.67;48.69;101010.47;5068307;28;20462;-68
2022/07/21 03:46:33;;;;;;;17.00;6.65;;;;;;;24.83;47.86;101015.88;5048098;28;20049;-68
2022/07/21 03:48:59;;;;;;;11.57;6.07;;;;;;;24.80;48.21;101009.97;5048920;28;20040;-68
2022/07/21 03:51:26;;;;;;;9.25;5.93;;;;;;;24.98;47.66;101002.69;5047706;28;20060;-68
2022/07/21 03:53:53;;;;;;;18.45;6.47;;;;;;;24.97;47.76;101011.75;5056184;28;20048;-68
2022/07/21 03:56:20;;;;;;;9.73;6.05;;;;;;;25.00;47.68;101022.97;5081300;28;20443;-68
2022/07/21 03:58:46;;;;;;;12.77;6.90;;;;;;;24.98;48.58;101021.47;5066987;28;20098;-68
2022/07/21 04:01:12;;;;;;;8.57;5.95;;;;;;;25.16;48.67;101009.59;5068785;28;20068;-68
2022/07/21 04:03:38;;;;;;;10.63;5.63;;;;;;;25.33;47.46;101025.69;5067373;28;20081;-68
2022/07/21 04:06:10;;;;;;;13.30;6.00;;;;;;;25.14;47.99;101038.41;5067633;28;20094;-68
2022/07/21 04:08:36;;;;;;;9.60;6.13;;;;;;;24.78;48.97;101049.56;5067969;28;20040;-68
2022/07/21 04:11:04;;;;;;;12.95;5.80;;;;;;;25.07;48.31;101056.19;5068984;28;20068;-68
2022/07/21 04:13:30;;;;;;;8.05;5.35;;;;;;;25.35;47.72;101070.13;5068204;28;20135;-68
2022/07/21 04:15:56;;;;;;;13.15;6.07;;;;;;;25.28;47.95;101085.22;5068837;28;20693;-68
2022/07/21 04:18:23;;;;;;;10.88;6.32;;;;;;;25.01;48.59;101094.44;5064531;28;20349;-68
2022/07/21 04:20:49;;;;;;;8.82;5.20;;;;;;;24.92;48.98;101111.47;5046674;28;20488;-68
2022/07/21 04:23:15;;;;;;;11.05;5.65;;;;;;;25.06;48.69;101101.97;5064088;28;20076;-68
2022/07/21 04:25:42;;;;;;;15.63;6.22;;;;;;;25.20;47.90;101091.41;5058073;28;20102;-68
2022/07/21 04:28:11;;;;;;;11.18;5.90;;;;;;;25.23;48.47;101100.16;5051455;28;20041;-68
2022/07/21 04:30:38;;;;;;;11.65;6.03;;;;;;;25.58;47.18;101091.81;5065467;28;20045;-68
2022/07/21 04:33:04;;;;;;;9.45;6.00;;;;;;;25.81;47.54;101100.06;5067303;28;20052;-68
2022/07/21 04:35:30;;;;;;;8.93;6.18;;;;;;;25.64;47.60;101097.41;5066842;28;20048;-68
2022/07/21 04:37:57;;;;;;;8.90;5.60;;;;;;;25.58;48.01;101089.16;5068506;28;20044;-68
2022/07/21 04:40:23;;;;;;;12.35;6.00;;;;;;;25.83;47.52;101085.44;5065633;28;20123;-68
2022/07/21 04:42:50;;;;;;;9.75;5.78;;;;;;;25.87;48.15;101097.53;5066883;28;20040;-68
2022/07/21 04:45:18;;;;;;;9.07;5.78;;;;;;;26.12;48.48;101098.34;5068252;28;20071;-68
2022/07/21 04:47:46;;;;;;;13.20;5.60;;;;;;;26.24;47.16;101102.38;5065973;28;20098;-68
2022/07/21 04:50:14;;;;;;;14.05;6.00;;;;;;;26.35;47.36;101090.44;5066823;28;20044;-68
2022/07/21 04:52:40;;;;;;;11.63;6.05;;;;;;;26.47;46.73;101099.78;5067608;28;20457;-68
2022/07/21 04:55:08;;;;;;;13.45;5.75;;;;;;;26.60;46.30;101113.53;5063100;28;20041;-68
2022/07/21 04:57:37;;;;;;;8.95;5.50;;;;;;;26.34;46.67;101126.38;5066976;28;20121;-68
2022/07/21 05:00:05;;;;;;;10.88;5.90;;;;;;;26.34;47.29;101129.06;5057322;28;20086;-68
2022/07/21 05:02:33;;;;;;;11.57;6.45;;;;;;;26.34;47.61;101121.84;5067542;28;20044;-68
2022/07/21 05:05:01;;;;;;;14.45;5.90;;;;;;;26.53;46.90;101123.31;5066307;28;20076;-68
2022/07/21 05:07:27;;;;;;;10.77;5.60;;;;;;;26.50;47.16;101140.59;5066073;28;20471;-68
2022/07/21 05:09:54;;;;;;;7.47;5.63;;;;;;;26.63;47.20;101140.06;5067820;28;20041;-68
2022/07/21 05:12:20;;;;;;;13.07;5.72;;;;;;;26.74;46.49;101152.31;5065582;28;20049;-68
2022/07/21 05:14:46;;;;;;;10.57;5.82;;;;;;;26.90;45.86;101147.72;5066113;28;20060;-68
2022/07/21 05:17:12;;;;;;;9.85;5.65;;;;;;;27.03;46.33;101145.31;5067947;28;20141;-68
2022/07/21 05:19:41;;;;;;;11.70;5.53;;;;;;;26.83;46.04;101141.34;5065020;28;20094;-68
2022/07/21 05:22:07;;;;;;;9.10;5.30;;;;;;;27.06;46.06;101127.97;5065997;28;20041;-68
2022/07/21 05:24:33;;;;;;;12.80;5.97;;;;;;;27.13;45.34;101128.09;5066737;28;20052;-68
2022/07/21 05:27:00;;;;;;;10.18;5.45;;;;;;;26.54;46.59;101123.13;5064969;28;20037;-68
2022/07/21 05:29:26;;;;;;;10.57;5.70;;;;;;;26.26;47.31;101121.03;5066093;28;20458;-68
2022/07/21 05:31:53;;;;;;;7.93;5.53;;;;;;;26.37;47.19;101115.28;5066334;28;20044;-68
2022/07/21 05:34:19;;;;;;;15.35;5.82;;;;;;;26.60;46.97;101100.94;5065467;28;20044;-68
2022/07/21 05:36:47;;;;;;;10.02;5.50;;;;;;;26.57;47.81;101095.03;5046591;28;20118;-68
2022/07/21 05:39:13;;;;;;;10.73;6.30;;;;;;;26.70;47.13;101076.50;5045699;28;20408;-68
2022/07/21 05:41:40;;;;;;;9.10;5.65;;;;;;;26.58;47.29;101076.03;5045951;28;20049;-68
2022/07/21 05:44:06;;;;;;;9.10;5.80;;;;;;;26.14;48.64;101083.72;5060190;28;20044;-68
2022/07/21 05:46:33;;;;;;;12.35;6.13;;;;;;;26.35;48.31;101090.44;5066463;28;20108;-68
2022/07/21 05:48:59;;;;;;;11.32;5.78;;;;;;;26.48;47.19;101086.16;5065121;28;20049;-68
2022/07/21 05:51:25;;;;;;;9.88;5.90;;;;;;;26.88;47.02;101093.25;5067224;28;20125;-68
2022/07/21 05:53:53;;;;;;;12.85;5.85;;;;;;;26.62;47.35;101088.13;5065616;28;20041;-68
2022/07/21 05:56:19;;;;;;;14.13;6.30;;;;;;;26.65;46.90;101073.47;5066283;28;20082;-68
2022/07/21 05:58:46;;;;;;;12.95;6.10;;;;;;;26.59;47.50;101082.25;5061364;28;20064;-68
2022/07/21 06:01:16;;;;;;;11.82;5.75;;;;;;;26.65;47.93;101097.69;5055618;28;20114;-68
2022/07/21 06:03:45;;;;;;;8.88;5.70;;;;;;;27.02;45.87;101102.41;5059517;28;20056;-68
2022/07/21 06:06:13;;;;;;;16.33;6.05;;;;;;;27.10;46.21;101105.91;5055603;28;20170;-68
2022/07/21 06:08:41;;;;;;;9.32;5.70;;;;;;;26.90;47.57;101115.44;5057853;28;20041;-68
2022/07/21 06:11:11;;;;;;;10.75;5.60;;;;;;;26.83;46.56;101114.44;5058085;28;20040;-68
2022/07/21 06:13:38;;;;;;;9.38;6.15;;;;;;;27.02;46.58;101115.88;5045598;28;20075;-68
2022/07/21 06:16:05;;;;;;;12.00;5.65;;;;;;;27.31;45.73;101124.09;5063761;28;20102;-68
2022/07/21 06:18:31;;;;;;;11.30;5.88;;;;;;;27.19;45.71;101138.16;5064733;28;20090;-68
2022/07/21 06:20:58;;;;;;;12.80;6.00;;;;;;;27.41;45.50;101145.44;5067070;28;20036;-68
2022/07/21 06:23:24;;;;;;;9.35;5.43;;;;;;;27.01;45.93;101155.41;5066566;28;20045;-67
2022/07/21 06:25:51;;;;;;;10.57;6.15;;;;;;;26.94;46.27;101159.81;5065246;28;20044;-67
2022/07/21 06:28:20;;;;;;;17.42;6.18;;;;;;;26.77;46.64;101166.25;5055877;28;20098;-67
2022/07/21 06:30:47;;;;;;;13.90;5.57;;;;;;;27.10;46.44;101159.75;5045355;28;20094;-67
2022/07/21 06:33:13;;;;;;;18.02;6.00;;;;;;;27.09;45.91;101176.06;5045331;28;20126;-67
2022/07/21 06:35:40;;;;;;;9.65;5.57;;;;;;;26.68;46.78;101174.53;5045001;28;20049;-67
2022/07/21 06:38:06;;;;;;;10.10;5.18;;;;;;;26.63;46.61;101172.34;5045428;28;20098;-67
2022/07/21 06:40:33;;;;;;;10.18;6.00;;;;;;;26.64;47.21;101182.94;5045811;28;20461;-67
2022/07/21 06:42:59;;;;;;;13.65;5.90;;;;;;;26.74;48.00;101188.13;5045093;28;20481;-67
2022/07/21 06:45:27;;;;;;;10.05;5.75;;;;;;;26.74;46.67;101180.06;5047304;28;20040;-67
2022/07/21 06:48:00;;;;;;;9.52;6.20;;;;;;;26.91;46.95;101188.91;5048976;28;20550;-68
2022/07/21 06:50:26;;;;;;;12.18;6.15;;;;;;;26.92;47.22;101186.06;5048465;28;20507;-67
2022/07/21 06:52:53;;;;;;;32.40;6.28;;;;;;;27.32;45.76;101182.34;5048803;28;20045;-67
2022/07/21 06:55:19;;;;;;;11.15;6.00;;;;;;;27.33;44.83;101185.88;5050064;28;20041;-67
2022/07/21 06:57:45;;;;;;;20.75;7.15;;;;;;;27.86;44.14;101191.25;5063105;28;20036;-67
2022/07/21 07:00:13;;;;;;;15.25;7.43;;;;;;;27.98;44.10;101181.72;5057148;28;20459;-67
2022/07/21 07:02:40;;;;;;;15.43;6.63;;;;;;;27.99;44.68;101179.88;5064215;28;20045;-67
2022/07/21 07:05:08;;;;;;;13.32;7.30;;;;;;;28.15;45.26;101184.31;5067450;28;20085;-68
2022/07/21 07:07:34;;;;;;;12.93;6.20;;;;;;;28.61;43.38;101195.81;5080003;28;20060;-67
2022/07/21 07:10:02;;;;;;;9.73;6.45;;;;;;;28.58;43.83;101194.31;5087628;28;20040;-67
2022/07/21 07:12:28;;;;;;;9.80;6.15;;;;;;;28.78;42.56;101192.81;5077432;28;20048;-67
2022/07/21 07:14:55;;;;;;;8.75;6.20;;;;;;;29.76;41.13;101185.03;5069577;28;20094;-67
2022/07/21 07:17:21;;;;;;;9.18;6.40;;;;;;;30.12;40.59;101179.56;5068589;28;20041;-67
2022/07/21 07:19:49;;;;;;;10.88;6.82;;;;;;;30.07;40.17;101184.75;5067405;28;20076;-67
2022/07/21 07:22:16;;;;;;;13.80;6.90;;;;;;;30.26;40.38;101178.66;5069730;28;20098;-67
2022/07/21 07:24:42;;;;;;;16.40;7.22;;;;;;;30.17;40.36;101173.56;5068021;28;20048;-67
2022/07/21 07:27:09;;;;;;;16.65;6.53;;;;;;;30.31;41.11;101178.88;5069392;28;20450;-67
2022/07/21 07:29:35;;;;;;;12.18;6.70;;;;;;;30.41;39.78;101183.97;5069525;28;20554;-67
2022/07/21 07:32:01;;;;;;;13.38;7.03;;;;;;;30.62;39.48;101177.66;5068508;28;20048;-67
2022/07/21 07:34:28;;;;;;;11.15;6.32;;;;;;;30.08;41.19;101188.28;5068034;28;20048;-67
2022/07/21 07:36:55;;;;;;;17.85;7.28;;;;;;;29.56;42.35;101191.28;5070118;28;20044;-68
2022/07/21 07:39:22;;;;;;;11.15;6.25;;;;;;;29.32;42.06;101204.09;5068488;28;20094;-68
2022/07/21 07:41:48;;;;;;;9.25;6.97;;;;;;;29.14;41.50;101205.50;5068357;28;20044;-68
2022/07/21 07:44:14;;;;;;;12.10;6.43;;;;;;;28.87;42.80;101202.47;5069868;28;20048;-68
2022/07/21 07:46:41;;;;;;;49.65;9.30;;;;;;;28.62;43.05;101198.34;5068432;28;20106;-68
2022/07/21 07:49:07;;;;;;;15.65;6.93;;;;;;;28.59;44.61;101204.09;5066743;28;20048;-68
2022/07/21 07:51:33;;;;;;;13.73;6.20;;;;;;;28.44;45.09;101205.94;5068711;28;20048;-68
2022/07/21 07:54:03;;;;;;;12.07;6.38;;;;;;;28.55;45.16;101202.81;5068760;28;20048;-68
2022/07/21 07:56:29;;;;;;;10.05;6.18;;;;;;;29.09;45.89;101203.38;5067252;28;20561;-68
2022/07/21 07:58:56;;;;;;;12.20;6.22;;;;;;;29.44;44.36;101193.66;5068705;28;20105;-68
2022/07/21 08:01:22;;;;;;;16.85;6.05;;;;;;;29.00;43.36;101191.00;5067482;28;20106;-68
2022/07/21 08:03:48;;;;;;;9.90;6.65;;;;;;;29.65;43.82;101190.97;5068818;28;20044;-68
2022/07/21 08:06:15;;;;;;;11.38;5.50;;;;;;;29.70;41.70;101188.53;5056527;28;20045;-68
2022/07/21 08:08:41;;;;;;;8.50;5.35;;;;;;;30.16;41.54;101204.34;5055141;28;20408;-68
2022/07/21 08:11:09;;;;;;;7.30;5.18;;;;;;;29.78;40.89;101206.47;5048392;28;20048;-68
2022/07/21 08:13:36;;;;;;;8.43;5.60;;;;;;;29.68;41.08;101225.69;5067455;28;20495;-68
2022/07/21 08:16:02;;;;;;;9.75;6.28;;;;;;;29.07;42.69;101231.59;5066639;28;20204;-68
2022/07/21 08:18:29;;;;;;;12.07;6.22;;;;;;;28.96;42.86;101228.34;5068394;28;20100;-68
2022/07/21 08:20:55;;;;;;;8.55;5.43;;;;;;;29.19;42.88;101232.78;5067088;28;20044;-68
2022/07/21 08:23:21;;;;;;;9.27;4.88;;;;;;;29.30;43.03;101235.03;5067923;28;20049;-68
2022/07/21 08:25:48;;;;;;;8.05;5.55;;;;;;;29.24;43.07;101247.41;5069071;28;20044;-68
2022/07/21 08:28:16;;;;;;;7.95;5.57;;;;;;;29.07;43.33;101243.22;5058096;28;20049;-68
2022/07/21 08:30:42;;;;;;;8.77;5.53;;;;;;;29.05;43.72;101252.56;5066312;28;20177;-68
2022/07/21 08:33:09;;;;;;;8.35;5.32;;;;;;;29.49;42.88;101245.22;5067210;28;20072;-68
2022/07/21 08:35:37;;;;;;;15.85;5.47;;;;;;;29.49;42.79;101242.53;5068730;28;20106;-67
2022/07/21 08:38:05;;;;;;;9.82;5.30;;;;;;;29.76;42.71;101227.44;5066005;28;20067;-68
2022/07/21 08:40:33;;;;;;;7.47;5.20;;;;;;;29.92;42.41;101227.25;5066855;28;20049;-67
2022/07/21 08:43:01;;;;;;;12.73;5.35;;;;;;;30.09;41.54;101227.78;5068658;28;20086;-67
2022/07/21 08:45:30;;;;;;;8.68;5.30;;;;;;;30.21;41.18;101228.94;5066838;28;20118;-67
2022/07/21 08:47:59;;;;;;;11.45;5.75;;;;;;;30.20;40.81;101221.84;5067564;28;20047;-67
2022/07/21 08:50:28;;;;;;;8.48;4.97;;;;;;;29.62;41.70;101217.53;5067429;28;20044;-67
2022/07/21 08:52:56;;;;;;;7.88;4.97;;;;;;;29.43;42.63;101229.78;5066553;28;20040;-67
2022/07/21 08:55:23;;;;;;;8.02;4.68;;;;;;;28.78;44.30;101218.94;5065445;28;20098;-68
2022/07/21 08:57:49;;;;;;;11.77;5.13;;;;;;;29.40;43.59;101217.50;5068099;28;20044;-68
2022/07/21 09:00:16;;;;;;;7.13;5.10;;;;;;;29.29;42.63;101215.28;5064146;28;20118;-68
2022/07/21 09:02:44;;;;;;;7.43;4.85;;;;;;;28.14;45.69;101221.22;5065208;28;20400;-68
2022/07/21 09:05:10;;;;;;;7.70;5.28;;;;;;;28.14;46.15;101228.47;5066787;28;20465;-67
2022/07/21 09:07:48;;;;;;;13.95;5.88;;;;;;;28.42;45.95;101241.19;5067342;28;20121;-67
2022/07/21 09:10:15;;;;;;;11.30;5.32;;;;;;;28.81;44.63;101235.59;5066096;28;20044;-67
2022/07/21 09:12:49;;;;;;;8.65;5.68;;;;;;;28.70;45.31;101249.56;5067346;28;20557;-67
2022/07/21 09:15:18;;;;;;;9.93;5.43;;;;;;;28.57;45.26;101248.47;5067412;28;20412;-67
2022/07/21 09:17:46;;;;;;;8.98;5.75;;;;;;;27.98;46.68;101243.72;5065548;28;20082;-67
2022/07/21 09:20:23;;;;;;;7.80;4.93;;;;;;;28.31;46.12;101238.09;5066453;28;20041;-67
2022/07/21 09:23:02;;;;;;;9.30;5.53;;;;;;;28.75;45.10;101228.22;5066141;28;20044;-67
2022/07/21 09:25:37;;;;;;;11.82;5.72;;;;;;;28.49;47.83;101217.03;5066006;28;20049;-67
2022/07/21 09:28:08;;;;;;;8.68;4.93;;;;;;;29.76;43.79;101206.66;5060571;28;20040;-67
2022/07/21 09:30:48;;;;;;;13.20;5.55;;;;;;;30.54;41.69;101224.66;5055698;28;20049;-67
2022/07/21 09:33:21;;;;;;;7.47;5.30;;;;;;;30.93;40.32;101230.31;5045583;28;20048;-67
2022/07/21 09:36:03;;;;;;;13.13;5.35;;;;;;;31.69;39.02;101231.09;5046055;28;20052;-67
2022/07/21 09:38:31;;;;;;;8.63;4.75;;;;;;;32.04;38.69;101233.66;5047384;28;20118;-67
2022/07/21 09:41:05;;;;;;;6.95;4.50;;;;;;;31.63;38.03;101239.22;5045456;28;20044;-67
2022/07/21 09:43:34;;;;;;;7.13;4.68;;;;;;;31.01;39.62;101237.47;5047367;28;20098;-67
2022/07/21 09:46:04;;;;;;;7.15;4.50;;;;;;;30.65;40.23;101242.22;5066496;28;21512;-67
2022/07/21 09:48:35;;;;;;;7.63;4.38;;;;;;;29.93;42.69;101248.66;5067208;28;20133;-67
2022/07/21 09:51:21;;;;;;;7.85;4.57;;;;;;;28.91;44.30;101246.13;5065004;28;20435;-67
2022/07/21 09:53:53;;;;;;;6.03;4.38;;;;;;;28.85;44.59;101242.31;5066292;28;20052;-67
2022/07/21 09:56:20;;;;;;;6.25;5.00;;;;;;;29.54;43.73;101240.09;5063749;28;20045;-67
2022/07/21 09:58:48;;;;;;;7.22;4.70;;;;;;;29.93;42.85;101232.44;5054742;28;20084;-67
2022/07/21 10:01:15;;;;;;;9.68;4.60;;;;;;;29.70;42.11;101253.41;5073502;28;20405;-67
2022/07/21 10:03:45;;;;;;;6.63;4.50;;;;;;;29.87;42.95;101240.50;5081129;28;20052;-67
2022/07/21 10:06:12;;;;;;;7.88;4.22;;;;;;;29.46;44.05;101240.22;5077151;28;20560;-67
2022/07/21 10:08:39;;;;;;;6.72;4.05;;;;;;;29.58;42.96;101237.84;5081758;28;20482;-67
2022/07/21 10:11:06;;;;;;;7.32;4.40;;;;;;;29.44;43.74;101232.31;5077837;28;20048;-67
2022/07/21 10:13:33;;;;;;;6.65;3.97;;;;;;;30.09;42.57;101225.94;5081114;28;20097;-67
2022/07/21 10:15:59;;;;;;;7.28;4.40;;;;;;;30.38;42.02;101224.91;5068286;28;20049;-67
2022/07/21 10:18:29;;;;;;;6.07;3.97;;;;;;;30.27;41.86;101226.28;5064285;28;20056;-67
2022/07/21 10:21:03;;;;;;;6.22;4.03;;;;;;;30.30;41.12;101212.38;5067292;28;20638;-67
2022/07/21 10:23:36;;;;;;;15.02;4.00;;;;;;;29.67;41.74;101224.06;5068274;28;20049;-67
2022/07/21 10:26:05;;;;;;;7.18;4.13;;;;;;;30.01;42.25;101217.13;5069725;28;20063;-67
2022/07/21 10:28:32;;;;;;;5.80;4.18;;;;;;;30.64;40.48;101199.94;5061309;28;20056;-67
2022/07/21 10:31:00;;;;;;;7.53;4.25;;;;;;;31.07;40.27;101204.19;5068075;28;20074;-67
2022/07/21 10:34:08;;;;;;;37.60;7.07;;;;;;;30.91;39.23;101194.50;5070578;28;20106;-67
2022/07/21 10:36:46;;;;;;;13.75;5.20;;;;;;;31.27;39.05;101183.41;5025530;28;20103;-67
2022/07/21 10:39:20;;;;;;;12.40;4.57;;;;;;;31.76;40.64;101177.72;5063661;28;20040;-67
2022/07/21 10:41:49;;;;;;;7.85;4.82;;;;;;;31.98;38.27;101180.22;5070054;28;20483;-67
2022/07/21 10:44:39;;;;;;;5.35;4.00;;;;;;;31.87;38.72;101162.69;5068698;28;20553;-67
2022/07/21 10:47:07;;;;;;;9.70;4.85;;;;;;;32.48;37.70;101166.03;5053326;28;20087;-67
2022/07/21 10:49:43;;;;;;;5.93;4.30;;;;;;;31.33;38.51;101179.06;5050903;28;20118;-67
2022/07/21 10:52:45;;;;;;;7.93;4.82;;;;;;;31.09;38.63;101171.47;5070285;28;20040;-67
2022/07/21 10:55:23;;;;;;;9.20;3.78;;;;;;;31.19;38.80;101175.44;5068063;28;20062;-67
2022/07/21 10:58:12;;;;;;;12.30;3.53;;;;;;;31.14;39.14;101169.81;5055575;28;20045;-67
2022/07/21 11:00:39;;;;;;;8.20;4.35;;;;;;;30.02;40.53;101178.22;5065269;28;20045;-67
2022/07/21 11:03:15;;;;;;;5.50;3.85;;;;;;;30.45;41.24;101168.19;5068641;28;20101;-67
2022/07/21 11:06:13;;;;;;;12.27;4.60;;;;;;;29.89;41.55;101160.88;5069279;28;20049;-67
2022/07/21 11:08:41;;;;;;;6.00;4.43;;;;;;;30.33;40.29;101152.47;5069172;28;20458;-67
2022/07/21 11:11:11;;;;;;;7.20;4.25;;;;;;;31.47;39.24;101137.41;5068684;28;20135;-67
2022/07/21 11:14:13;;;;;;;8.88;4.95;;;;;;;31.95;38.35;101142.66;5069842;28;20046;-67
2022/07/21 11:17:02;;;;;;;6.72;4.32;;;;;;;31.56;38.01;101136.19;5068269;28;20088;-67
2022/07/21 11:19:31;;;;;;;8.43;5.40;;;;;;;31.89;37.07;101138.09;5068147;28;20040;-67
2022/07/21 11:21:59;;;;;;;9.45;6.00;;;;;;;30.64;38.91;101143.94;5067870;28;20094;-67
2022/07/21 11:24:27;;;;;;;8.48;5.07;;;;;;;31.14;39.49;101126.50;5067367;28;20072;-67
2022/07/21 11:27:00;;;;;;;8.93;5.00;;;;;;;30.81;38.42;101133.63;5068375;28;20052;-67